sensor_id;sensor_type;location;lat;lon;timestamp;pressure;altitude;pressure_sealevel;temperature;humidity
804;BME280;25687;49.976;8.240;2022-09-17T00:01:08;99677.50;;;8.95;100.00
804;BME280;25687;49.976;8.240;2022-09-17T00:03:34;99680.22;;;8.76;100.00
804;BME280;25687;49.976;8.240;2022-09-17T00:06:08;99676.91;;;8.74;100.00
804;BME280;25687;49.976;8.240;2022-09-17T00:08:35;99676.03;;;8.75;100.00
804;BME280;25687;49.976;8.240;2022-09-17T00:11:15;99670.22;;;8.71;100.00
804;BME280;25687;49.976;8.240;2022-09-17T00:13:42;99677.41;;;8.80;100.00
804;BME280;25687;49.976;8.240;2022-09-17T00:16:10;99678.06;;;8.68;100.00
804;BME280;25687;49.976;8.240;2022-09-17T00:18:36;99679.41;;;8.75;100.00
804;BME280;25687;49.976;8.240;2022-09-17T00:21:06;99678.50;;;8.76;100.00
804;BME280;25687;49.976;8.240;2022-09-17T00:23:31;99678.59;;;8.75;100.00
804;BME280;25687;49.976;8.240;2022-09-17T00:25:57;99679.56;;;8.72;100.00
804;BME280;25687;49.976;8.240;2022-09-17T00:28:23;99686.28;;;8.75;100.00
804;BME280;25687;49.976;8.240;2022-09-17T00:30:48;99681.72;;;8.80;100.00
804;BME280;25687;49.976;8.240;2022-09-17T00:33:16;99686.66;;;8.83;100.00
804;BME280;25687;49.976;8.240;2022-09-17T00:35:42;99687.50;;;8.83;100.00
804;BME280;25687;49.976;8.240;2022-09-17T00:38:07;99690.06;;;8.67;100.00
804;BME280;25687;49.976;8.240;2022-09-17T00:40:33;99692.53;;;8.69;100.00
804;BME280;25687;49.976;8.240;2022-09-17T00:42:59;99691.72;;;8.68;100.00
804;BME280;25687;49.976;8.240;2022-09-17T00:45:25;99684.50;;;8.59;100.00
804;BME280;25687;49.976;8.240;2022-09-17T00:48:00;99683.28;;;8.66;100.00
804;BME280;25687;49.976;8.240;2022-09-17T00:50:30;99686.00;;;8.63;100.00
804;BME280;25687;49.976;8.240;2022-09-17T00:53:05;99690.53;;;8.58;100.00
804;BME280;25687;49.976;8.240;2022-09-17T00:58:17;99697.75;;;8.67;100.00
804;BME280;25687;49.976;8.240;2022-09-17T01:00:44;99700.88;;;8.56;100.00
804;BME280;25687;49.976;8.240;2022-09-17T01:03:11;99698.72;;;8.49;100.00
804;BME280;25687;49.976;8.240;2022-09-17T01:05:49;99704.91;;;8.45;100.00
804;BME280;25687;49.976;8.240;2022-09-17T01:08:36;99714.22;;;8.46;100.00
804;BME280;25687;49.976;8.240;2022-09-17T01:11:28;99713.72;;;8.39;100.00
804;BME280;25687;49.976;8.240;2022-09-17T01:16:59;99700.59;;;8.45;100.00
804;BME280;25687;49.976;8.240;2022-09-17T01:22:37;99701.31;;;8.31;100.00
804;BME280;25687;49.976;8.240;2022-09-17T01:30:17;99724.69;;;8.25;100.00
804;BME280;25687;49.976;8.240;2022-09-17T01:38:24;99714.66;;;8.20;100.00
804;BME280;25687;49.976;8.240;2022-09-17T01:41:06;99713.91;;;8.18;100.00
804;BME280;25687;49.976;8.240;2022-09-17T01:46:39;99711.28;;;8.20;100.00
804;BME280;25687;49.976;8.240;2022-09-17T01:49:08;99717.31;;;8.19;100.00
804;BME280;25687;49.976;8.240;2022-09-17T01:51:40;99711.44;;;8.17;100.00
804;BME280;25687;49.976;8.240;2022-09-17T01:54:15;99712.06;;;8.38;100.00
804;BME280;25687;49.976;8.240;2022-09-17T01:56:46;99699.56;;;8.32;100.00
804;BME280;25687;49.976;8.240;2022-09-17T01:59:24;99715.69;;;8.34;100.00
804;BME280;25687;49.976;8.240;2022-09-17T02:01:56;99713.88;;;8.36;100.00
804;BME280;25687;49.976;8.240;2022-09-17T02:04:31;99719.63;;;8.41;100.00
804;BME280;25687;49.976;8.240;2022-09-17T02:07:04;99716.44;;;8.36;100.00
804;BME280;25687;49.976;8.240;2022-09-17T02:09:36;99724.47;;;8.46;100.00
804;BME280;25687;49.976;8.240;2022-09-17T02:12:06;99722.47;;;8.52;100.00
804;BME280;25687;49.976;8.240;2022-09-17T02:14:38;99725.22;;;8.65;100.00
804;BME280;25687;49.976;8.240;2022-09-17T02:17:13;99717.38;;;8.68;100.00
804;BME280;25687;49.976;8.240;2022-09-17T02:19:43;99720.44;;;8.75;100.00
804;BME280;25687;49.976;8.240;2022-09-17T02:22:24;99718.03;;;8.88;100.00
804;BME280;25687;49.976;8.240;2022-09-17T02:25:02;99723.91;;;8.90;100.00
804;BME280;25687;49.976;8.240;2022-09-17T02:30:09;99722.16;;;9.07;100.00
804;BME280;25687;49.976;8.240;2022-09-17T02:32:35;99719.78;;;9.19;100.00
804;BME280;25687;49.976;8.240;2022-09-17T02:35:00;99721.50;;;9.19;100.00
804;BME280;25687;49.976;8.240;2022-09-17T02:37:25;99723.16;;;9.20;100.00
804;BME280;25687;49.976;8.240;2022-09-17T02:39:52;99716.53;;;9.16;100.00
804;BME280;25687;49.976;8.240;2022-09-17T02:45:13;99711.84;;;9.24;100.00
804;BME280;25687;49.976;8.240;2022-09-17T02:51:04;99712.97;;;9.18;100.00
804;BME280;25687;49.976;8.240;2022-09-17T02:53:37;99711.75;;;9.26;100.00
804;BME280;25687;49.976;8.240;2022-09-17T02:59:08;99708.50;;;9.22;100.00
804;BME280;25687;49.976;8.240;2022-09-17T03:02:02;99704.19;;;9.07;100.00
804;BME280;25687;49.976;8.240;2022-09-17T03:04:32;99713.88;;;9.17;100.00
804;BME280;25687;49.976;8.240;2022-09-17T03:06:58;99708.75;;;9.17;100.00
804;BME280;25687;49.976;8.240;2022-09-17T03:09:24;99714.47;;;9.23;100.00
804;BME280;25687;49.976;8.240;2022-09-17T03:11:50;99711.22;;;9.19;100.00
804;BME280;25687;49.976;8.240;2022-09-17T03:14:15;99711.31;;;9.17;100.00
804;BME280;25687;49.976;8.240;2022-09-17T03:16:40;99711.88;;;9.23;100.00
804;BME280;25687;49.976;8.240;2022-09-17T03:19:06;99718.19;;;9.33;100.00
804;BME280;25687;49.976;8.240;2022-09-17T03:21:31;99713.22;;;9.30;100.00
804;BME280;25687;49.976;8.240;2022-09-17T03:23:56;99719.25;;;9.13;100.00
804;BME280;25687;49.976;8.240;2022-09-17T03:26:24;99717.78;;;9.25;100.00
804;BME280;25687;49.976;8.240;2022-09-17T03:28:50;99721.34;;;9.22;100.00
804;BME280;25687;49.976;8.240;2022-09-17T03:31:15;99723.25;;;9.18;100.00
804;BME280;25687;49.976;8.240;2022-09-17T03:33:40;99721.31;;;9.38;100.00
804;BME280;25687;49.976;8.240;2022-09-17T03:36:06;99726.50;;;9.52;100.00
804;BME280;25687;49.976;8.240;2022-09-17T03:38:31;99721.78;;;9.45;100.00
804;BME280;25687;49.976;8.240;2022-09-17T03:41:00;99720.97;;;9.44;100.00
804;BME280;25687;49.976;8.240;2022-09-17T03:43:26;99716.34;;;9.35;100.00
804;BME280;25687;49.976;8.240;2022-09-17T03:45:51;99721.41;;;9.36;100.00
804;BME280;25687;49.976;8.240;2022-09-17T03:48:17;99712.53;;;9.42;100.00
804;BME280;25687;49.976;8.240;2022-09-17T03:50:42;99727.13;;;9.42;100.00
804;BME280;25687;49.976;8.240;2022-09-17T03:53:08;99723.31;;;9.49;100.00
804;BME280;25687;49.976;8.240;2022-09-17T03:55:37;99729.72;;;9.56;100.00
804;BME280;25687;49.976;8.240;2022-09-17T03:58:02;99728.25;;;9.52;100.00
804;BME280;25687;49.976;8.240;2022-09-17T04:00:27;99733.94;;;9.57;100.00
804;BME280;25687;49.976;8.240;2022-09-17T04:02:53;99737.03;;;9.48;100.00
804;BME280;25687;49.976;8.240;2022-09-17T04:05:18;99734.94;;;9.55;100.00
804;BME280;25687;49.976;8.240;2022-09-17T04:07:43;99739.78;;;9.45;100.00
804;BME280;25687;49.976;8.240;2022-09-17T04:10:09;99747.63;;;9.58;100.00
804;BME280;25687;49.976;8.240;2022-09-17T04:12:35;99747.75;;;9.71;100.00
804;BME280;25687;49.976;8.240;2022-09-17T04:15:00;99748.75;;;9.68;100.00
804;BME280;25687;49.976;8.240;2022-09-17T04:17:26;99748.75;;;9.68;100.00
804;BME280;25687;49.976;8.240;2022-09-17T04:19:51;99750.56;;;9.66;100.00
804;BME280;25687;49.976;8.240;2022-09-17T04:22:18;99746.78;;;9.57;100.00
804;BME280;25687;49.976;8.240;2022-09-17T04:24:43;99744.63;;;9.65;100.00
804;BME280;25687;49.976;8.240;2022-09-17T04:27:09;99754.91;;;9.65;100.00
804;BME280;25687;49.976;8.240;2022-09-17T04:29:34;99754.81;;;9.67;100.00
804;BME280;25687;49.976;8.240;2022-09-17T04:31:59;99755.06;;;9.62;100.00
804;BME280;25687;49.976;8.240;2022-09-17T04:34:25;99748.09;;;9.64;100.00
804;BME280;25687;49.976;8.240;2022-09-17T04:36:50;99750.34;;;9.55;100.00
804;BME280;25687;49.976;8.240;2022-09-17T04:39:15;99746.41;;;9.49;100.00
804;BME280;25687;49.976;8.240;2022-09-17T04:41:41;99745.63;;;9.63;100.00
804;BME280;25687;49.976;8.240;2022-09-17T04:44:07;99749.53;;;9.54;100.00
804;BME280;25687;49.976;8.240;2022-09-17T04:46:32;99753.25;;;9.48;100.00
804;BME280;25687;49.976;8.240;2022-09-17T04:48:57;99757.25;;;9.54;100.00
804;BME280;25687;49.976;8.240;2022-09-17T04:51:23;99768.91;;;9.44;100.00
804;BME280;25687;49.976;8.240;2022-09-17T04:53:48;99765.69;;;9.40;100.00
804;BME280;25687;49.976;8.240;2022-09-17T04:56:14;99769.66;;;9.46;100.00
804;BME280;25687;49.976;8.240;2022-09-17T04:58:39;99770.81;;;9.40;100.00
804;BME280;25687;49.976;8.240;2022-09-17T05:01:05;99774.38;;;9.37;100.00
804;BME280;25687;49.976;8.240;2022-09-17T05:03:30;99775.22;;;9.38;100.00
804;BME280;25687;49.976;8.240;2022-09-17T05:05:55;99776.81;;;9.25;100.00
804;BME280;25687;49.976;8.240;2022-09-17T05:08:20;99782.50;;;9.30;100.00
804;BME280;25687;49.976;8.240;2022-09-17T05:10:49;99792.13;;;9.26;100.00
804;BME280;25687;49.976;8.240;2022-09-17T05:13:14;99797.09;;;9.29;100.00
804;BME280;25687;49.976;8.240;2022-09-17T05:15:39;99802.22;;;9.29;100.00
804;BME280;25687;49.976;8.240;2022-09-17T05:18:05;99796.69;;;9.37;100.00
804;BME280;25687;49.976;8.240;2022-09-17T05:20:30;99796.91;;;9.32;100.00
804;BME280;25687;49.976;8.240;2022-09-17T05:22:55;99791.34;;;9.40;100.00
804;BME280;25687;49.976;8.240;2022-09-17T05:25:21;99797.81;;;9.47;100.00
804;BME280;25687;49.976;8.240;2022-09-17T05:27:51;99795.25;;;9.31;100.00
804;BME280;25687;49.976;8.240;2022-09-17T05:30:16;99792.13;;;9.26;100.00
804;BME280;25687;49.976;8.240;2022-09-17T05:32:42;99788.50;;;9.30;100.00
804;BME280;25687;49.976;8.240;2022-09-17T05:35:08;99788.88;;;9.39;100.00
804;BME280;25687;49.976;8.240;2022-09-17T05:37:34;99788.06;;;9.54;100.00
804;BME280;25687;49.976;8.240;2022-09-17T05:40:00;99797.75;;;9.49;100.00
804;BME280;25687;49.976;8.240;2022-09-17T05:42:26;99800.38;;;9.63;100.00
804;BME280;25687;49.976;8.240;2022-09-17T05:44:51;99799.94;;;9.71;100.00
804;BME280;25687;49.976;8.240;2022-09-17T05:47:16;99797.47;;;9.53;100.00
804;BME280;25687;49.976;8.240;2022-09-17T05:49:42;99809.06;;;9.61;100.00
804;BME280;25687;49.976;8.240;2022-09-17T05:52:07;99816.97;;;9.58;100.00
804;BME280;25687;49.976;8.240;2022-09-17T05:54:32;99824.47;;;9.61;100.00
804;BME280;25687;49.976;8.240;2022-09-17T05:56:58;99824.06;;;9.68;100.00
804;BME280;25687;49.976;8.240;2022-09-17T05:59:23;99824.91;;;9.69;100.00
804;BME280;25687;49.976;8.240;2022-09-17T06:01:48;99823.72;;;9.59;100.00
804;BME280;25687;49.976;8.240;2022-09-17T06:04:15;99834.25;;;9.86;100.00
804;BME280;25687;49.976;8.240;2022-09-17T06:06:42;99842.84;;;10.01;100.00
804;BME280;25687;49.976;8.240;2022-09-17T06:09:08;99830.31;;;10.25;100.00
804;BME280;25687;49.976;8.240;2022-09-17T06:11:33;99834.69;;;10.39;100.00
804;BME280;25687;49.976;8.240;2022-09-17T06:14:00;99826.53;;;10.61;100.00
804;BME280;25687;49.976;8.240;2022-09-17T06:16:26;99830.88;;;10.61;100.00
804;BME280;25687;49.976;8.240;2022-09-17T06:18:51;99825.81;;;10.74;100.00
804;BME280;25687;49.976;8.240;2022-09-17T06:21:17;99828.31;;;10.61;100.00
804;BME280;25687;49.976;8.240;2022-09-17T06:23:43;99824.63;;;10.65;100.00
804;BME280;25687;49.976;8.240;2022-09-17T06:26:10;99829.88;;;10.78;100.00
804;BME280;25687;49.976;8.240;2022-09-17T06:28:36;99833.00;;;10.83;100.00
804;BME280;25687;49.976;8.240;2022-09-17T06:31:03;99831.13;;;10.56;100.00
804;BME280;25687;49.976;8.240;2022-09-17T06:33:30;99829.41;;;10.57;100.00
804;BME280;25687;49.976;8.240;2022-09-17T06:35:57;99836.22;;;10.87;100.00
804;BME280;25687;49.976;8.240;2022-09-17T06:38:28;99823.59;;;11.11;100.00
804;BME280;25687;49.976;8.240;2022-09-17T06:40:55;99826.97;;;11.26;100.00
804;BME280;25687;49.976;8.240;2022-09-17T06:43:21;99825.44;;;11.78;100.00
804;BME280;25687;49.976;8.240;2022-09-17T06:45:57;99828.69;;;12.73;100.00
804;BME280;25687;49.976;8.240;2022-09-17T06:48:23;99823.56;;;14.20;95.21
804;BME280;25687;49.976;8.240;2022-09-17T06:50:50;99821.44;;;14.26;87.58
804;BME280;25687;49.976;8.240;2022-09-17T06:53:15;99832.63;;;13.91;89.40
804;BME280;25687;49.976;8.240;2022-09-17T06:55:41;99844.72;;;13.90;92.03
804;BME280;25687;49.976;8.240;2022-09-17T06:58:06;99841.63;;;14.09;90.26
804;BME280;25687;49.976;8.240;2022-09-17T07:00:32;99844.38;;;13.33;93.96
804;BME280;25687;49.976;8.240;2022-09-17T07:02:58;99840.53;;;13.02;97.74
804;BME280;25687;49.976;8.240;2022-09-17T07:05:25;99856.22;;;13.12;97.74
804;BME280;25687;49.976;8.240;2022-09-17T07:07:51;99861.53;;;12.84;100.00
804;BME280;25687;49.976;8.240;2022-09-17T07:10:16;99853.03;;;13.08;100.00
804;BME280;25687;49.976;8.240;2022-09-17T07:12:42;99855.03;;;12.91;100.00
804;BME280;25687;49.976;8.240;2022-09-17T07:15:08;99850.28;;;13.35;99.13
804;BME280;25687;49.976;8.240;2022-09-17T07:17:37;99848.97;;;13.67;96.43
804;BME280;25687;49.976;8.240;2022-09-17T07:20:05;99856.22;;;13.62;92.83
804;BME280;25687;49.976;8.240;2022-09-17T07:22:30;99852.13;;;13.33;96.48
804;BME280;25687;49.976;8.240;2022-09-17T07:24:55;99854.38;;;13.14;97.99
804;BME280;25687;49.976;8.240;2022-09-17T07:27:21;99844.78;;;13.03;100.00
804;BME280;25687;49.976;8.240;2022-09-17T07:29:46;99850.25;;;12.98;98.83
804;BME280;25687;49.976;8.240;2022-09-17T07:32:11;99845.28;;;13.58;94.95
804;BME280;25687;49.976;8.240;2022-09-17T07:34:37;99855.22;;;14.94;82.67
804;BME280;25687;49.976;8.240;2022-09-17T07:37:02;99841.66;;;16.43;70.40
804;BME280;25687;49.976;8.240;2022-09-17T07:39:27;99845.41;;;16.81;65.83
804;BME280;25687;49.976;8.240;2022-09-17T07:41:53;99849.00;;;17.21;62.36
804;BME280;25687;49.976;8.240;2022-09-17T07:44:18;99859.09;;;17.04;63.27
804;BME280;25687;49.976;8.240;2022-09-17T07:46:43;99857.00;;;17.49;63.12
804;BME280;25687;49.976;8.240;2022-09-17T07:49:08;99857.44;;;17.54;60.81
804;BME280;25687;49.976;8.240;2022-09-17T07:51:34;99858.13;;;16.84;64.26
804;BME280;25687;49.976;8.240;2022-09-17T07:53:59;99860.56;;;16.45;67.34
804;BME280;25687;49.976;8.240;2022-09-17T07:56:26;99857.53;;;15.75;71.52
804;BME280;25687;49.976;8.240;2022-09-17T07:58:52;99852.91;;;15.90;72.25
804;BME280;25687;49.976;8.240;2022-09-17T08:01:18;99852.78;;;15.80;70.99
804;BME280;25687;49.976;8.240;2022-09-17T08:03:49;99850.97;;;16.98;65.94
804;BME280;25687;49.976;8.240;2022-09-17T08:06:18;99861.41;;;17.58;62.26
804;BME280;25687;49.976;8.240;2022-09-17T08:08:44;99861.81;;;17.13;62.97
804;BME280;25687;49.976;8.240;2022-09-17T08:11:15;99867.44;;;16.35;67.47
804;BME280;25687;49.976;8.240;2022-09-17T08:13:41;99871.75;;;16.24;69.02
804;BME280;25687;49.976;8.240;2022-09-17T08:16:09;99866.81;;;15.89;72.75
804;BME280;25687;49.976;8.240;2022-09-17T08:18:37;99866.00;;;16.73;66.32
804;BME280;25687;49.976;8.240;2022-09-17T08:21:04;99877.16;;;17.66;61.51
804;BME280;25687;49.976;8.240;2022-09-17T08:23:30;99869.59;;;17.53;57.99
804;BME280;25687;49.976;8.240;2022-09-17T08:25:57;99866.41;;;17.40;60.57
804;BME280;25687;49.976;8.240;2022-09-17T08:28:25;99870.25;;;16.74;62.76
804;BME280;25687;49.976;8.240;2022-09-17T08:30:51;99859.44;;;15.84;71.98
804;BME280;25687;49.976;8.240;2022-09-17T08:33:17;99859.84;;;16.22;75.75
804;BME280;25687;49.976;8.240;2022-09-17T08:35:51;99864.91;;;16.23;69.84
804;BME280;25687;49.976;8.240;2022-09-17T08:38:17;99861.38;;;15.59;74.90
804;BME280;25687;49.976;8.240;2022-09-17T08:40:51;99865.41;;;15.41;76.82
804;BME280;25687;49.976;8.240;2022-09-17T08:43:18;99866.88;;;15.66;73.77
804;BME280;25687;49.976;8.240;2022-09-17T08:45:51;99865.41;;;17.21;66.97
804;BME280;25687;49.976;8.240;2022-09-17T08:48:17;99859.34;;;18.40;60.45
804;BME280;25687;49.976;8.240;2022-09-17T08:50:43;99861.94;;;18.87;55.74
804;BME280;25687;49.976;8.240;2022-09-17T08:56:17;99869.88;;;17.70;56.19
804;BME280;25687;49.976;8.240;2022-09-17T08:59:06;99865.41;;;16.59;63.25
804;BME280;25687;49.976;8.240;2022-09-17T09:04:52;99858.09;;;18.44;52.62
804;BME280;25687;49.976;8.240;2022-09-17T09:07:36;99861.69;;;18.33;52.45
804;BME280;25687;49.976;8.240;2022-09-17T09:10:11;99854.13;;;19.25;48.74
804;BME280;25687;49.976;8.240;2022-09-17T09:12:38;99857.59;;;20.42;46.20
804;BME280;25687;49.976;8.240;2022-09-17T09:15:20;99861.16;;;20.41;45.76
804;BME280;25687;49.976;8.240;2022-09-17T09:17:50;99853.91;;;19.55;46.82
804;BME280;25687;49.976;8.240;2022-09-17T09:20:30;99854.75;;;18.62;47.70
804;BME280;25687;49.976;8.240;2022-09-17T09:23:12;99862.50;;;18.81;48.60
804;BME280;25687;49.976;8.240;2022-09-17T09:25:54;99871.50;;;17.51;54.13
804;BME280;25687;49.976;8.240;2022-09-17T09:28:35;99871.66;;;17.09;59.41
804;BME280;25687;49.976;8.240;2022-09-17T09:31:14;99880.78;;;15.65;60.92
804;BME280;25687;49.976;8.240;2022-09-17T09:33:42;99894.16;;;15.15;63.59
804;BME280;25687;49.976;8.240;2022-09-17T09:36:13;99898.50;;;14.80;69.81
804;BME280;25687;49.976;8.240;2022-09-17T09:38:47;99918.25;;;14.34;78.77
804;BME280;25687;49.976;8.240;2022-09-17T09:41:42;99931.84;;;13.14;93.85
804;BME280;25687;49.976;8.240;2022-09-17T09:44:11;99938.31;;;12.55;100.00
804;BME280;25687;49.976;8.240;2022-09-17T09:55:22;99926.19;;;11.46;100.00
804;BME280;25687;49.976;8.240;2022-09-17T09:58:04;99930.47;;;11.74;100.00
804;BME280;25687;49.976;8.240;2022-09-17T10:03:10;99929.44;;;12.19;100.00
804;BME280;25687;49.976;8.240;2022-09-17T10:05:37;99928.38;;;12.49;100.00
804;BME280;25687;49.976;8.240;2022-09-17T10:08:13;99920.59;;;12.89;100.00
804;BME280;25687;49.976;8.240;2022-09-17T10:13:23;99922.91;;;13.56;100.00
804;BME280;25687;49.976;8.240;2022-09-17T10:15:48;99915.75;;;13.97;100.00
804;BME280;25687;49.976;8.240;2022-09-17T10:18:19;99912.81;;;14.26;98.64
804;BME280;25687;49.976;8.240;2022-09-17T10:20:58;99907.34;;;14.42;93.40
804;BME280;25687;49.976;8.240;2022-09-17T10:23:28;99910.50;;;14.34;95.22
804;BME280;25687;49.976;8.240;2022-09-17T10:25:56;99901.72;;;14.48;95.04
804;BME280;25687;49.976;8.240;2022-09-17T10:31:02;99896.84;;;14.68;93.80
804;BME280;25687;49.976;8.240;2022-09-17T10:33:30;99898.28;;;15.17;91.31
804;BME280;25687;49.976;8.240;2022-09-17T10:35:57;99890.75;;;15.37;85.31
804;BME280;25687;49.976;8.240;2022-09-17T10:38:34;99894.56;;;15.77;85.45
804;BME280;25687;49.976;8.240;2022-09-17T10:41:26;99904.34;;;15.85;86.66
804;BME280;25687;49.976;8.240;2022-09-17T10:43:51;99897.13;;;15.77;86.65
804;BME280;25687;49.976;8.240;2022-09-17T10:46:25;99886.41;;;15.81;88.54
804;BME280;25687;49.976;8.240;2022-09-17T10:49:25;99885.44;;;15.39;80.36
804;BME280;25687;49.976;8.240;2022-09-17T10:52:09;99882.38;;;14.88;75.73
804;BME280;25687;49.976;8.240;2022-09-17T10:57:02;99874.13;;;15.40;79.39
804;BME280;25687;49.976;8.240;2022-09-17T10:59:51;99871.34;;;15.87;70.91
804;BME280;25687;49.976;8.240;2022-09-17T11:05:24;99870.03;;;16.13;64.86
804;BME280;25687;49.976;8.240;2022-09-17T11:10:40;99870.38;;;16.41;65.25
804;BME280;25687;49.976;8.240;2022-09-17T11:18:34;99867.91;;;15.31;63.90
804;BME280;25687;49.976;8.240;2022-09-17T11:21:17;99871.56;;;15.28;65.51
804;BME280;25687;49.976;8.240;2022-09-17T11:26:33;99863.31;;;14.89;64.36
804;BME280;25687;49.976;8.240;2022-09-17T11:37:10;99845.31;;;15.10;64.23
804;BME280;25687;49.976;8.240;2022-09-17T11:39:52;99841.28;;;15.29;60.24
804;BME280;25687;49.976;8.240;2022-09-17T11:42:39;99837.72;;;15.41;61.24
804;BME280;25687;49.976;8.240;2022-09-17T11:45:16;99843.38;;;15.35;60.14
804;BME280;25687;49.976;8.240;2022-09-17T11:47:53;99832.91;;;15.25;59.17
804;BME280;25687;49.976;8.240;2022-09-17T11:50:24;99830.91;;;15.29;59.51
804;BME280;25687;49.976;8.240;2022-09-17T11:55:22;99833.34;;;15.53;55.45
804;BME280;25687;49.976;8.240;2022-09-17T11:57:53;99832.44;;;15.75;56.62
804;BME280;25687;49.976;8.240;2022-09-17T12:00:22;99828.19;;;15.86;55.42
804;BME280;25687;49.976;8.240;2022-09-17T12:02:56;99821.44;;;16.16;53.92
804;BME280;25687;49.976;8.240;2022-09-17T12:05:33;99812.63;;;16.28;51.08
804;BME280;25687;49.976;8.240;2022-09-17T12:08:11;99816.25;;;16.16;51.15
804;BME280;25687;49.976;8.240;2022-09-17T12:10:48;99815.66;;;16.12;49.22
804;BME280;25687;49.976;8.240;2022-09-17T12:15:48;99813.19;;;16.32;49.40
804;BME280;25687;49.976;8.240;2022-09-17T12:18:31;99809.25;;;16.58;47.68
804;BME280;25687;49.976;8.240;2022-09-17T12:21:04;99807.13;;;16.73;47.01
804;BME280;25687;49.976;8.240;2022-09-17T12:26:49;99789.94;;;17.72;44.75
804;BME280;25687;49.976;8.240;2022-09-17T12:30:02;99787.75;;;18.06;42.63
804;BME280;25687;49.976;8.240;2022-09-17T12:32:34;99799.38;;;18.12;41.34
804;BME280;25687;49.976;8.240;2022-09-17T12:35:39;99795.56;;;17.48;42.22
804;BME280;25687;49.976;8.240;2022-09-17T12:43:45;99786.91;;;16.46;46.32
804;BME280;25687;49.976;8.240;2022-09-17T12:46:32;99793.84;;;17.07;47.22
804;BME280;25687;49.976;8.240;2022-09-17T12:49:26;99776.69;;;17.65;45.97
804;BME280;25687;49.976;8.240;2022-09-17T12:51:58;99790.50;;;17.66;44.10
804;BME280;25687;49.976;8.240;2022-09-17T12:54:50;99774.31;;;17.82;41.80
804;BME280;25687;49.976;8.240;2022-09-17T12:57:38;99780.09;;;17.66;44.18
804;BME280;25687;49.976;8.240;2022-09-17T13:00:15;99780.22;;;17.35;45.15
804;BME280;25687;49.976;8.240;2022-09-17T13:13:36;99819.50;;;16.60;48.57
804;BME280;25687;49.976;8.240;2022-09-17T13:24:26;99818.97;;;14.13;74.61
804;BME280;25687;49.976;8.240;2022-09-17T13:26:54;99815.34;;;14.27;75.32
804;BME280;25687;49.976;8.240;2022-09-17T13:37:55;99777.00;;;14.43;67.62
804;BME280;25687;49.976;8.240;2022-09-17T13:40:31;99777.72;;;14.57;66.98
804;BME280;25687;49.976;8.240;2022-09-17T13:45:33;99790.66;;;14.34;66.60
804;BME280;25687;49.976;8.240;2022-09-17T13:48:20;99790.63;;;14.23;66.18
804;BME280;25687;49.976;8.240;2022-09-17T13:50:48;99793.03;;;14.01;69.41
804;BME280;25687;49.976;8.240;2022-09-17T13:55:46;99808.53;;;13.90;69.08
804;BME280;25687;49.976;8.240;2022-09-17T14:08:46;99811.69;;;14.29;81.56
804;BME280;25687;49.976;8.240;2022-09-17T14:13:52;99805.31;;;14.69;80.06
804;BME280;25687;49.976;8.240;2022-09-17T14:16:25;99807.16;;;14.67;77.75
804;BME280;25687;49.976;8.240;2022-09-17T14:21:45;99801.97;;;15.12;76.31
804;BME280;25687;49.976;8.240;2022-09-17T14:24:24;99801.69;;;15.27;76.36
804;BME280;25687;49.976;8.240;2022-09-17T14:30:19;99791.31;;;15.27;62.46
804;BME280;25687;49.976;8.240;2022-09-17T14:35:44;99795.00;;;15.24;64.32
804;BME280;25687;49.976;8.240;2022-09-17T14:38:32;99794.19;;;15.24;65.07
804;BME280;25687;49.976;8.240;2022-09-17T14:41:06;99788.09;;;15.13;65.80
804;BME280;25687;49.976;8.240;2022-09-17T14:43:49;99795.06;;;14.79;67.44
804;BME280;25687;49.976;8.240;2022-09-17T14:46:22;99784.91;;;14.64;68.59
804;BME280;25687;49.976;8.240;2022-09-17T14:48:48;99788.22;;;14.55;69.63
804;BME280;25687;49.976;8.240;2022-09-17T14:53:48;99796.38;;;14.26;71.22
804;BME280;25687;49.976;8.240;2022-09-17T14:56:18;99796.06;;;14.42;69.08
804;BME280;25687;49.976;8.240;2022-09-17T14:58:47;99802.22;;;14.52;74.89
804;BME280;25687;49.976;8.240;2022-09-17T15:01:25;99807.47;;;14.28;76.92
804;BME280;25687;49.976;8.240;2022-09-17T15:06:41;99818.72;;;14.16;81.87
804;BME280;25687;49.976;8.240;2022-09-17T15:09:14;99808.38;;;14.27;75.49
804;BME280;25687;49.976;8.240;2022-09-17T15:11:41;99812.59;;;14.06;76.12
804;BME280;25687;49.976;8.240;2022-09-17T15:14:15;99808.09;;;14.08;76.88
804;BME280;25687;49.976;8.240;2022-09-17T15:16:56;99814.63;;;14.36;75.71
804;BME280;25687;49.976;8.240;2022-09-17T15:19:40;99816.09;;;14.51;73.90
804;BME280;25687;49.976;8.240;2022-09-17T15:22:08;99813.13;;;14.45;75.50
804;BME280;25687;49.976;8.240;2022-09-17T15:24:44;99817.66;;;14.18;78.48
804;BME280;25687;49.976;8.240;2022-09-17T15:30:03;99813.81;;;13.88;79.32
804;BME280;25687;49.976;8.240;2022-09-17T15:32:31;99822.63;;;13.62;80.89
804;BME280;25687;49.976;8.240;2022-09-17T15:37:51;99827.31;;;13.56;84.02
804;BME280;25687;49.976;8.240;2022-09-17T15:40:30;99829.72;;;13.34;85.13
804;BME280;25687;49.976;8.240;2022-09-17T15:43:12;99828.06;;;13.46;87.89
804;BME280;25687;49.976;8.240;2022-09-17T15:45:40;99822.97;;;13.57;87.41
804;BME280;25687;49.976;8.240;2022-09-17T15:50:54;99822.03;;;13.21;87.83
804;BME280;25687;49.976;8.240;2022-09-17T15:53:22;99828.75;;;13.23;90.47
804;BME280;25687;49.976;8.240;2022-09-17T16:08:57;99832.31;;;13.34;92.55
804;BME280;25687;49.976;8.240;2022-09-17T16:11:30;99822.44;;;13.52;88.36
804;BME280;25687;49.976;8.240;2022-09-17T16:13:59;99816.84;;;13.58;87.22
804;BME280;25687;49.976;8.240;2022-09-17T16:16:33;99817.53;;;13.73;86.96
804;BME280;25687;49.976;8.240;2022-09-17T16:18:59;99822.66;;;13.97;86.56
804;BME280;25687;49.976;8.240;2022-09-17T16:21:25;99810.53;;;13.98;84.11
804;BME280;25687;49.976;8.240;2022-09-17T16:23:50;99819.00;;;13.88;83.64
804;BME280;25687;49.976;8.240;2022-09-17T16:26:19;99822.41;;;13.65;83.76
804;BME280;25687;49.976;8.240;2022-09-17T16:28:47;99820.31;;;13.46;84.85
804;BME280;25687;49.976;8.240;2022-09-17T16:31:15;99827.03;;;13.35;84.90
804;BME280;25687;49.976;8.240;2022-09-17T16:33:40;99837.78;;;13.29;87.51